Decoded Metar for KALO (WATERLOO in IA, USA) (IATA:ALO) | Meteo·Mobile Aviation Weather
aviador You're here:

KALO Decoded Metar

WATERLOO in IA, USA
Report Time2018-09-20 02:54:00
UTC Time2018-09-20 03:36:10
Flight Rules vfr VFR
Wind130° at 08 kt
W.Decomp.*RWY 12: 7.9 kt HW 1.0 kt RCW
RWY 18: 4.8 kt HW 6.4 kt LCW
RWY 06: 3.1 kt HW 7.4 kt RCW
W.Rank130° ranks 12
Current wind is below 130° avg. (8.0)
Visibility9999 m
Phenomena:N/A
Clouds:Few 110 Hf
Expected CloudBase > 800 ft AGL from Temp-Dew spread
CeilingNone
Temp21°C (ISA +8)
Dew Point19°C (88% RH)
QNH1013 hPa
Density Alt2,060 ft
Elevation866 ft
Report Wrong Elevation
Raw Report
KALO 200254Z AUTO 13008KT 10SM FEW110 21/19 A2990 RMK AO2 LTG DSNT
W-N SLP122 T02060189 58008=

Extra information for KALO:More info

Metar Taf Metar & Taf Last 4 Metars F.Rules Stats Wind Profile Meteogram Temp Stats Airport Information Weather charts Add Link Nearby VenuesMetar ALERT Operation Metar Decoded Social comments

AIRNAV info for KALO